Time;durP1;ratioP1;P1;durP2;ratioP2;P2;SDS_P1;SDS_P2;PMS_P1;PMS_P2;Temp;Humidity;BMP_temperature;BMP_pressure;BME280_temperature;BME280_humidity;BME280_pressure;Samples;Min_cycle;Max_cycle;Signal;HPM_P1;HPM_P2
2023/09/30 00:01:52;;;;;;;0.30;0.30;;;;;;;;;;4983315;28;20149;-92
2023/09/30 00:04:18;;;;;;;0.40;0.40;;;;;;;;;;4969539;28;20102;-94
2023/09/30 00:06:44;;;;;;;0.30;0.30;;;;;;;;;;4985839;28;20048;-91
2023/09/30 00:09:11;;;;;;;0.40;0.40;;;;;;;;;;4986136;28;20125;-91
2023/09/30 00:11:40;;;;;;;0.20;0.20;;;;;;;;;;4985580;28;20038;-93
2023/09/30 00:14:07;;;;;;;0.20;0.20;;;;;;;;;;4986407;28;20049;-93
2023/09/30 00:16:33;;;;;;;0.20;0.20;;;;;;;;;;4972087;28;20105;-94
2023/09/30 00:18:59;;;;;;;0.30;0.30;;;;;;;;;;4985992;28;20105;-94
2023/09/30 00:21:25;;;;;;;0.20;0.20;;;;;;;;;;4987509;28;20403;-93
2023/09/30 00:23:51;;;;;;;0.20;0.20;;;;;;;;;;4986718;28;20042;-95
2023/09/30 00:26:17;;;;;;;0.30;0.30;;;;;;;;;;4987077;28;20045;-94
2023/09/30 00:28:44;;;;;;;0.20;0.20;;;;;;;;;;4985714;28;20381;-92
2023/09/30 00:31:14;;;;;;;0.30;0.30;;;;;;;;;;5002081;28;20046;-94
2023/09/30 00:33:40;;;;;;;0.20;0.20;;;;;;;;;;4987010;28;20517;-93
2023/09/30 00:36:09;;;;;;;0.30;0.30;;;;;;;;;;4987623;28;20042;-95
2023/09/30 00:38:36;;;;;;;0.25;0.25;;;;;;;;;;4986218;28;20069;-93
2023/09/30 00:41:02;;;;;;;0.30;0.30;;;;;;;;;;4986041;28;20510;-93
2023/09/30 00:43:28;;;;;;;0.30;0.30;;;;;;;;;;4986285;28;20038;-94
2023/09/30 00:46:22;;;;;;;0.20;0.20;;;;;;;;;;4983791;28;20038;-95
2023/09/30 00:48:48;;;;;;;0.25;0.25;;;;;;;;;;4967269;28;20510;-93
2023/09/30 00:51:14;;;;;;;0.28;0.28;;;;;;;;;;4969489;28;20053;-94
2023/09/30 00:53:41;;;;;;;0.30;0.30;;;;;;;;;;4966532;28;20042;-93
2023/09/30 00:56:10;;;;;;;0.30;0.30;;;;;;;;;;4976721;28;20053;-91
2023/09/30 00:58:36;;;;;;;0.40;0.40;;;;;;;;;;4981788;28;20073;-93
2023/09/30 01:01:02;;;;;;;0.30;0.30;;;;;;;;;;4982066;28;20088;-93
2023/09/30 01:03:28;;;;;;;0.20;0.20;;;;;;;;;;4983780;28;20038;-93
2023/09/30 01:05:56;;;;;;;0.30;0.30;;;;;;;;;;4968279;28;20082;-94
2023/09/30 01:08:22;;;;;;;0.30;0.30;;;;;;;;;;4982725;28;20039;-95
2023/09/30 01:10:48;;;;;;;0.30;0.30;;;;;;;;;;4985637;28;20046;-94
2023/09/30 01:13:14;;;;;;;0.20;0.20;;;;;;;;;;4980130;28;20038;-94
2023/09/30 01:15:40;;;;;;;0.30;0.30;;;;;;;;;;4974534;28;20526;-95
2023/09/30 01:18:06;;;;;;;0.30;0.30;;;;;;;;;;4983667;28;20043;-94
2023/09/30 01:20:32;;;;;;;0.20;0.20;;;;;;;;;;4984719;28;20046;-95
2023/09/30 01:22:59;;;;;;;0.20;0.20;;;;;;;;;;4985563;28;20077;-93
2023/09/30 01:25:25;;;;;;;0.17;0.17;;;;;;;;;;4985514;28;20043;-94
2023/09/30 01:27:54;;;;;;;0.10;0.10;;;;;;;;;;4987517;28;20038;-93
2023/09/30 01:30:22;;;;;;;0.10;0.10;;;;;;;;;;4987963;28;20066;-92
2023/09/30 01:32:51;;;;;;;0.30;0.30;;;;;;;;;;4986004;28;20061;-94
2023/09/30 01:35:21;;;;;;;0.20;0.20;;;;;;;;;;4985940;28;20065;-94
2023/09/30 01:37:47;;;;;;;0.30;0.30;;;;;;;;;;4986388;28;20049;-94
2023/09/30 01:40:14;;;;;;;0.30;0.30;;;;;;;;;;4984318;28;20042;-92
2023/09/30 01:42:40;;;;;;;0.30;0.30;;;;;;;;;;4984588;28;20046;-92
2023/09/30 01:45:07;;;;;;;0.20;0.20;;;;;;;;;;4985114;28;20049;-93
2023/09/30 01:47:33;;;;;;;0.32;0.32;;;;;;;;;;4986115;28;20406;-92
2023/09/30 01:49:59;;;;;;;0.30;0.30;;;;;;;;;;4973936;28;20542;-96
2023/09/30 01:52:35;;;;;;;0.30;0.30;;;;;;;;;;4965895;28;20035;-95
2023/09/30 01:55:01;;;;;;;0.30;0.30;;;;;;;;;;4981692;28;20069;-93
2023/09/30 01:57:27;;;;;;;0.20;0.20;;;;;;;;;;4984977;28;20116;-95
2023/09/30 01:59:53;;;;;;;0.30;0.30;;;;;;;;;;5002372;28;20046;-95
2023/09/30 02:02:19;;;;;;;0.20;0.20;;;;;;;;;;4984125;28;20038;-91
2023/09/30 02:04:44;;;;;;;0.20;0.20;;;;;;;;;;4984290;28;20049;-96
2023/09/30 02:07:11;;;;;;;0.30;0.30;;;;;;;;;;4986703;28;20580;-93
2023/09/30 02:09:37;;;;;;;0.20;0.20;;;;;;;;;;4984013;28;20496;-95
2023/09/30 02:12:03;;;;;;;0.20;0.20;;;;;;;;;;4980680;28;20474;-95
2023/09/30 02:14:32;;;;;;;0.25;0.25;;;;;;;;;;4964841;28;20046;-95
2023/09/30 02:16:58;;;;;;;0.10;0.10;;;;;;;;;;4965115;28;20042;-95
2023/09/30 02:19:24;;;;;;;0.30;0.30;;;;;;;;;;4979452;28;20042;-94
2023/09/30 02:21:50;;;;;;;0.20;0.20;;;;;;;;;;4988376;28;20045;-95
2023/09/30 02:24:16;;;;;;;0.20;0.20;;;;;;;;;;4984066;28;20035;-94
2023/09/30 02:26:43;;;;;;;0.22;0.22;;;;;;;;;;4984398;28;20128;-93
2023/09/30 02:29:09;;;;;;;0.22;0.22;;;;;;;;;;4984411;28;20136;-94
2023/09/30 02:31:35;;;;;;;0.10;0.10;;;;;;;;;;4984724;28;20046;-94
2023/09/30 02:34:04;;;;;;;0.20;0.20;;;;;;;;;;4985007;28;20128;-93
2023/09/30 02:36:30;;;;;;;0.20;0.20;;;;;;;;;;4986683;28;20073;-95
2023/09/30 02:38:57;;;;;;;0.30;0.30;;;;;;;;;;4982850;28;20046;-93
2023/09/30 02:41:23;;;;;;;0.20;0.20;;;;;;;;;;4966913;28;20035;-96
2023/09/30 02:43:49;;;;;;;0.25;0.25;;;;;;;;;;4983554;28;20034;-92
2023/09/30 02:46:15;;;;;;;0.20;0.20;;;;;;;;;;4985202;28;20038;-95
2023/09/30 02:48:41;;;;;;;0.20;0.20;;;;;;;;;;4983439;28;20038;-95
2023/09/30 02:51:10;;;;;;;0.40;0.40;;;;;;;;;;4985015;28;20042;-94
2023/09/30 02:53:37;;;;;;;0.30;0.30;;;;;;;;;;4984001;28;20042;-94
2023/09/30 02:56:04;;;;;;;0.30;0.30;;;;;;;;;;4987404;28;20046;-94
2023/09/30 02:58:30;;;;;;;0.20;0.20;;;;;;;;;;4970466;28;20038;-95
2023/09/30 03:00:59;;;;;;;0.30;0.30;;;;;;;;;;4968501;28;20121;-94
2023/09/30 03:03:25;;;;;;;0.30;0.30;;;;;;;;;;4964718;28;20035;-95
2023/09/30 03:05:52;;;;;;;0.30;0.30;;;;;;;;;;4968880;28;20039;-96
2023/09/30 03:08:18;;;;;;;0.30;0.30;;;;;;;;;;4986961;28;20042;-96
2023/09/30 03:10:44;;;;;;;0.20;0.20;;;;;;;;;;4984351;28;20133;-96
2023/09/30 03:13:10;;;;;;;0.30;0.30;;;;;;;;;;4983489;28;20018;-94
2023/09/30 03:15:36;;;;;;;0.30;0.30;;;;;;;;;;4984913;28;20070;-95
2023/09/30 03:18:03;;;;;;;0.30;0.30;;;;;;;;;;4979239;28;20049;-92
2023/09/30 03:20:31;;;;;;;0.20;0.20;;;;;;;;;;4964882;28;20106;-95
2023/09/30 03:22:57;;;;;;;0.20;0.20;;;;;;;;;;4965394;28;20102;-94
2023/09/30 03:25:23;;;;;;;0.20;0.20;;;;;;;;;;4964960;28;20133;-91
2023/09/30 03:27:50;;;;;;;0.38;0.38;;;;;;;;;;4963198;28;20087;-94
2023/09/30 03:30:17;;;;;;;0.35;0.35;;;;;;;;;;4967388;28;20042;-95
2023/09/30 03:32:43;;;;;;;0.20;0.20;;;;;;;;;;4965694;28;20043;-93
2023/09/30 03:35:19;;;;;;;0.20;0.20;;;;;;;;;;4964563;28;20045;-91
2023/09/30 03:37:45;;;;;;;0.20;0.20;;;;;;;;;;4964686;28;20051;-94
2023/09/30 03:40:13;;;;;;;0.20;0.20;;;;;;;;;;4976690;28;20042;-94
2023/09/30 03:42:42;;;;;;;0.25;0.25;;;;;;;;;;4964010;28;20070;-94
2023/09/30 03:45:08;;;;;;;0.35;0.35;;;;;;;;;;4964777;28;20038;-94
2023/09/30 03:47:35;;;;;;;0.20;0.20;;;;;;;;;;4964854;28;20039;-95
2023/09/30 03:50:03;;;;;;;0.30;0.30;;;;;;;;;;4965030;28;20093;-95
2023/09/30 03:52:29;;;;;;;0.28;0.28;;;;;;;;;;4965319;28;20049;-95
2023/09/30 03:55:03;;;;;;;0.30;0.30;;;;;;;;;;4967298;28;20042;-94
2023/09/30 03:57:29;;;;;;;0.30;0.30;;;;;;;;;;4967528;28;20069;-95
2023/09/30 03:59:58;;;;;;;0.28;0.28;;;;;;;;;;4981398;28;20399;-95
2023/09/30 04:02:24;;;;;;;0.32;0.32;;;;;;;;;;4979956;28;20039;-94
2023/09/30 04:04:53;;;;;;;0.20;0.20;;;;;;;;;;4965279;28;20030;-95
2023/09/30 04:07:21;;;;;;;0.30;0.30;;;;;;;;;;4982434;28;20026;-94
2023/09/30 04:09:47;;;;;;;0.30;0.30;;;;;;;;;;4981136;28;20042;-95
2023/09/30 04:12:13;;;;;;;0.30;0.30;;;;;;;;;;4980301;28;20054;-95
2023/09/30 04:14:39;;;;;;;0.20;0.20;;;;;;;;;;4982592;28;20093;-92
2023/09/30 04:17:05;;;;;;;0.20;0.20;;;;;;;;;;4983946;28;20045;-92
2023/09/30 04:19:32;;;;;;;0.30;0.30;;;;;;;;;;4985842;28;20512;-94
2023/09/30 04:21:58;;;;;;;0.20;0.20;;;;;;;;;;4983476;28;20038;-94
2023/09/30 04:24:46;;;;;;;0.20;0.20;;;;;;;;;;4998596;28;20039;-95
2023/09/30 04:27:12;;;;;;;0.20;0.20;;;;;;;;;;4984245;28;20148;-92
2023/09/30 04:29:39;;;;;;;0.30;0.30;;;;;;;;;;4982566;28;20050;-93
2023/09/30 04:32:06;;;;;;;0.30;0.30;;;;;;;;;;4983306;28;20499;-95
2023/09/30 04:34:32;;;;;;;0.32;0.32;;;;;;;;;;4983638;28;20077;-95
2023/09/30 04:36:59;;;;;;;0.20;0.20;;;;;;;;;;4985598;28;20042;-94
2023/09/30 04:39:25;;;;;;;0.30;0.30;;;;;;;;;;4983187;28;20039;-94
2023/09/30 04:41:51;;;;;;;0.20;0.20;;;;;;;;;;4980735;28;20062;-93
2023/09/30 04:44:21;;;;;;;0.20;0.20;;;;;;;;;;4965582;28;20042;-94
2023/09/30 04:46:47;;;;;;;0.30;0.30;;;;;;;;;;4981465;28;20043;-94
2023/09/30 04:49:15;;;;;;;0.40;0.40;;;;;;;;;;4979636;28;20049;-94
2023/09/30 04:51:41;;;;;;;0.20;0.20;;;;;;;;;;4983392;28;20043;-93
2023/09/30 04:54:08;;;;;;;0.30;0.30;;;;;;;;;;4987262;28;20070;-96
2023/09/30 04:56:35;;;;;;;0.30;0.30;;;;;;;;;;4989386;28;20050;-96
2023/09/30 04:59:01;;;;;;;0.30;0.30;;;;;;;;;;4986950;28;20101;-94
2023/09/30 05:01:27;;;;;;;0.30;0.30;;;;;;;;;;4987083;28;20057;-95
2023/09/30 05:03:53;;;;;;;0.30;0.30;;;;;;;;;;4983010;28;20035;-95
2023/09/30 05:06:19;;;;;;;0.20;0.20;;;;;;;;;;4967487;28;20034;-95
2023/09/30 05:08:45;;;;;;;0.20;0.20;;;;;;;;;;4982595;28;20581;-90
2023/09/30 05:11:11;;;;;;;0.30;0.30;;;;;;;;;;4965964;28;20080;-94
2023/09/30 05:13:37;;;;;;;0.30;0.30;;;;;;;;;;4965958;28;20516;-95
2023/09/30 05:16:03;;;;;;;0.30;0.30;;;;;;;;;;4966439;28;20046;-95
2023/09/30 05:18:29;;;;;;;0.28;0.28;;;;;;;;;;4978225;28;20085;-95
2023/09/30 05:20:56;;;;;;;0.30;0.30;;;;;;;;;;4982397;28;20185;-95
2023/09/30 05:23:22;;;;;;;0.20;0.20;;;;;;;;;;4981953;28;20031;-94
2023/09/30 05:25:48;;;;;;;0.70;0.70;;;;;;;;;;4982679;28;20043;-95
2023/09/30 05:28:15;;;;;;;0.20;0.20;;;;;;;;;;4980393;28;20042;-92
2023/09/30 05:30:43;;;;;;;0.40;0.40;;;;;;;;;;4984433;28;20073;-95
2023/09/30 05:33:14;;;;;;;0.30;0.30;;;;;;;;;;4979654;28;20483;-93
2023/09/30 05:35:40;;;;;;;0.30;0.30;;;;;;;;;;4979048;28;20043;-94
2023/09/30 05:38:07;;;;;;;0.20;0.20;;;;;;;;;;4967415;28;20104;-95
2023/09/30 05:40:33;;;;;;;0.20;0.20;;;;;;;;;;4985601;28;20050;-93
2023/09/30 05:43:00;;;;;;;0.20;0.20;;;;;;;;;;4984874;28;20042;-94
2023/09/30 05:45:33;;;;;;;0.20;0.20;;;;;;;;;;4985394;28;20038;-96
2023/09/30 05:48:03;;;;;;;0.30;0.30;;;;;;;;;;4985153;28;20050;-94
2023/09/30 05:50:29;;;;;;;0.20;0.20;;;;;;;;;;5001609;28;20046;-95
2023/09/30 05:52:55;;;;;;;0.20;0.20;;;;;;;;;;5000805;28;20129;-95
2023/09/30 05:55:22;;;;;;;0.30;0.30;;;;;;;;;;5001831;28;20395;-94
2023/09/30 05:58:00;;;;;;;0.30;0.30;;;;;;;;;;4968360;28;20051;-93
2023/09/30 06:00:30;;;;;;;0.30;0.30;;;;;;;;;;4968987;28;20038;-93
2023/09/30 06:02:57;;;;;;;0.30;0.30;;;;;;;;;;4983010;28;20038;-94
2023/09/30 06:05:23;;;;;;;0.40;0.40;;;;;;;;;;5002087;28;20089;-95
2023/09/30 06:07:49;;;;;;;0.35;0.35;;;;;;;;;;4976179;28;20041;-95
2023/09/30 06:10:16;;;;;;;0.30;0.30;;;;;;;;;;4977339;28;20038;-96
2023/09/30 06:12:42;;;;;;;0.30;0.30;;;;;;;;;;4968933;28;20058;-94
2023/09/30 06:15:08;;;;;;;0.28;0.28;;;;;;;;;;4973824;28;20121;-94
2023/09/30 06:17:53;;;;;;;0.20;0.20;;;;;;;;;;4983830;28;20046;-91
2023/09/30 06:20:22;;;;;;;0.20;0.20;;;;;;;;;;4983269;28;20046;-95
2023/09/30 06:22:53;;;;;;;0.30;0.30;;;;;;;;;;4981150;28;20114;-91
2023/09/30 06:25:21;;;;;;;0.30;0.30;;;;;;;;;;4964808;28;20070;-95
2023/09/30 06:27:48;;;;;;;0.30;0.30;;;;;;;;;;4948718;28;20503;-96
2023/09/30 06:30:20;;;;;;;0.20;0.20;;;;;;;;;;4982611;28;20043;-95
2023/09/30 06:32:46;;;;;;;0.20;0.20;;;;;;;;;;4964847;28;20499;-94
2023/09/30 06:35:26;;;;;;;0.20;0.20;;;;;;;;;;4976595;28;20042;-93
2023/09/30 06:37:52;;;;;;;0.20;0.20;;;;;;;;;;4983066;28;20066;-95
2023/09/30 06:40:18;;;;;;;0.30;0.30;;;;;;;;;;4982684;28;20030;-94
2023/09/30 06:42:45;;;;;;;0.20;0.20;;;;;;;;;;4984627;28;20041;-94
2023/09/30 06:45:15;;;;;;;0.22;0.22;;;;;;;;;;4985521;28;20042;-94
2023/09/30 06:47:45;;;;;;;0.28;0.28;;;;;;;;;;4983559;28;20042;-90
2023/09/30 06:50:16;;;;;;;0.40;0.40;;;;;;;;;;4979688;28;20047;-93
2023/09/30 06:52:42;;;;;;;0.30;0.30;;;;;;;;;;4965284;28;20051;-94
2023/09/30 06:55:08;;;;;;;0.30;0.30;;;;;;;;;;4983641;28;20042;-93
2023/09/30 06:57:35;;;;;;;0.30;0.30;;;;;;;;;;4985118;28;20124;-94
2023/09/30 07:00:05;;;;;;;0.30;0.30;;;;;;;;;;4984294;28;20042;-95
2023/09/30 07:02:31;;;;;;;0.20;0.20;;;;;;;;;;4968610;28;20045;-94
2023/09/30 07:05:22;;;;;;;0.30;0.30;;;;;;;;;;4973812;28;20451;-95
2023/09/30 07:07:49;;;;;;;0.15;0.15;;;;;;;;;;4965029;28;20035;-95
2023/09/30 07:10:15;;;;;;;0.22;0.22;;;;;;;;;;4964779;28;20042;-94
2023/09/30 07:12:41;;;;;;;0.22;0.22;;;;;;;;;;4978123;28;20072;-94
2023/09/30 07:15:08;;;;;;;0.40;0.40;;;;;;;;;;4982546;28;20042;-91
2023/09/30 07:17:34;;;;;;;0.20;0.20;;;;;;;;;;4982463;28;20042;-95
2023/09/30 07:20:02;;;;;;;0.30;0.30;;;;;;;;;;4977294;28;20038;-95
2023/09/30 07:22:28;;;;;;;0.30;0.30;;;;;;;;;;4983865;28;20144;-93
2023/09/30 07:24:56;;;;;;;0.20;0.20;;;;;;;;;;4984371;28;20038;-94
2023/09/30 07:27:22;;;;;;;0.20;0.20;;;;;;;;;;4999465;28;20042;-94
2023/09/30 07:33:17;;;;;;;0.30;0.30;;;;;;;;;;4983938;28;20037;-94
2023/09/30 07:35:46;;;;;;;0.20;0.20;;;;;;;;;;4964837;28;20050;-95
2023/09/30 07:38:12;;;;;;;0.20;0.20;;;;;;;;;;4963054;28;20061;-95
2023/09/30 07:40:38;;;;;;;0.30;0.30;;;;;;;;;;4963464;28;20046;-96
2023/09/30 07:43:04;;;;;;;0.30;0.30;;;;;;;;;;4964080;28;20043;-95
2023/09/30 07:45:31;;;;;;;0.30;0.30;;;;;;;;;;4964721;28;20050;-93
2023/09/30 07:47:58;;;;;;;0.20;0.20;;;;;;;;;;4963072;28;20118;-93
2023/09/30 07:50:25;;;;;;;0.20;0.20;;;;;;;;;;4980523;28;20093;-95
2023/09/30 07:52:51;;;;;;;0.30;0.30;;;;;;;;;;4963784;28;20089;-93
2023/09/30 07:55:20;;;;;;;0.40;0.40;;;;;;;;;;4963949;28;20044;-94
2023/09/30 07:57:46;;;;;;;0.28;0.28;;;;;;;;;;4947090;28;20054;-95
2023/09/30 08:00:16;;;;;;;0.30;0.30;;;;;;;;;;4965444;28;20042;-96
2023/09/30 08:02:43;;;;;;;0.28;0.28;;;;;;;;;;4963202;28;20042;-95
2023/09/30 08:05:09;;;;;;;0.28;0.28;;;;;;;;;;4962446;28;20039;-96
2023/09/30 08:07:35;;;;;;;0.30;0.30;;;;;;;;;;4963238;28;20539;-94
2023/09/30 08:10:04;;;;;;;0.20;0.20;;;;;;;;;;4962611;28;20354;-95
2023/09/30 08:12:30;;;;;;;0.30;0.30;;;;;;;;;;4962905;28;20054;-96
2023/09/30 08:14:58;;;;;;;0.20;0.20;;;;;;;;;;4963290;28;20050;-94
2023/09/30 08:17:24;;;;;;;0.30;0.30;;;;;;;;;;4964434;28;20125;-94
2023/09/30 08:19:51;;;;;;;0.20;0.20;;;;;;;;;;4964227;28;20492;-94
2023/09/30 08:22:17;;;;;;;0.20;0.20;;;;;;;;;;4965235;28;20039;-94
2023/09/30 08:24:44;;;;;;;0.20;0.20;;;;;;;;;;4963782;28;20546;-94
2023/09/30 08:27:10;;;;;;;0.40;0.40;;;;;;;;;;4967678;28;20047;-94
2023/09/30 08:29:36;;;;;;;0.30;0.30;;;;;;;;;;4966409;28;20049;-92
2023/09/30 08:32:03;;;;;;;0.30;0.30;;;;;;;;;;4968385;28;20042;-95
2023/09/30 08:34:29;;;;;;;0.20;0.20;;;;;;;;;;4966275;28;20046;-93
2023/09/30 08:36:56;;;;;;;0.13;0.13;;;;;;;;;;4967167;28;20522;-93
2023/09/30 08:39:24;;;;;;;0.20;0.20;;;;;;;;;;4965917;28;20101;-93
2023/09/30 08:41:50;;;;;;;0.20;0.20;;;;;;;;;;4966635;28;20019;-94
2023/09/30 08:44:17;;;;;;;0.20;0.20;;;;;;;;;;4968386;28;20041;-94
2023/09/30 08:46:44;;;;;;;0.20;0.20;;;;;;;;;;4982624;28;20039;-93
2023/09/30 08:49:11;;;;;;;0.20;0.20;;;;;;;;;;4981662;28;20070;-95
2023/09/30 08:51:38;;;;;;;0.10;0.10;;;;;;;;;;4983404;28;20050;-92
2023/09/30 08:54:05;;;;;;;0.20;0.20;;;;;;;;;;4985259;28;20084;-93
2023/09/30 08:56:35;;;;;;;0.20;0.20;;;;;;;;;;4970610;28;20055;-94
2023/09/30 08:59:02;;;;;;;0.30;0.30;;;;;;;;;;4965888;28;20043;-94
2023/09/30 09:01:29;;;;;;;0.20;0.20;;;;;;;;;;4966395;28;20046;-94
2023/09/30 09:03:55;;;;;;;0.20;0.20;;;;;;;;;;4965689;28;20039;-94
2023/09/30 09:06:22;;;;;;;0.10;0.10;;;;;;;;;;4966751;28;20487;-93
2023/09/30 09:08:48;;;;;;;0.20;0.20;;;;;;;;;;4965522;28;20102;-94
2023/09/30 09:11:15;;;;;;;0.20;0.20;;;;;;;;;;4965308;28;20106;-92
2023/09/30 09:13:49;;;;;;;0.20;0.20;;;;;;;;;;4965979;28;20403;-93
2023/09/30 09:16:17;;;;;;;0.20;0.20;;;;;;;;;;4978472;28;20049;-93
2023/09/30 09:18:43;;;;;;;0.20;0.20;;;;;;;;;;4999564;28;20050;-92
2023/09/30 09:21:14;;;;;;;0.30;0.30;;;;;;;;;;4984448;28;20045;-95
2023/09/30 09:23:42;;;;;;;0.20;0.20;;;;;;;;;;4983062;28;20046;-95
2023/09/30 09:26:08;;;;;;;0.65;0.65;;;;;;;;;;4967014;28;20045;-96
2023/09/30 09:28:36;;;;;;;0.32;0.32;;;;;;;;;;4966676;28;20030;-95
2023/09/30 09:31:03;;;;;;;0.50;0.50;;;;;;;;;;4968249;28;20047;-95
2023/09/30 09:33:39;;;;;;;0.90;0.90;;;;;;;;;;4987018;28;20046;-95
2023/09/30 09:36:08;;;;;;;0.77;0.77;;;;;;;;;;4987099;28;20046;-95
2023/09/30 09:38:47;;;;;;;0.10;0.10;;;;;;;;;;4984909;28;20065;-92
2023/09/30 09:41:14;;;;;;;0.20;0.20;;;;;;;;;;4985475;28;20097;-92
2023/09/30 09:43:42;;;;;;;0.20;0.20;;;;;;;;;;4985514;28;20491;-95
2023/09/30 09:46:09;;;;;;;0.20;0.20;;;;;;;;;;4987256;28;20132;-95
2023/09/30 09:48:38;;;;;;;0.20;0.20;;;;;;;;;;4982385;28;20041;-94
2023/09/30 09:51:09;;;;;;;0.20;0.20;;;;;;;;;;4965793;28;20038;-94
2023/09/30 09:53:37;;;;;;;0.20;0.20;;;;;;;;;;4970174;28;20128;-94
2023/09/30 09:56:07;;;;;;;0.20;0.20;;;;;;;;;;4982917;28;20534;-94
2023/09/30 09:58:36;;;;;;;0.10;0.10;;;;;;;;;;4966130;28;20046;-95
2023/09/30 10:01:03;;;;;;;0.13;0.13;;;;;;;;;;4972449;28;20077;-95
2023/09/30 10:03:32;;;;;;;0.13;0.13;;;;;;;;;;4985598;28;20543;-94
2023/09/30 10:05:58;;;;;;;0.10;0.10;;;;;;;;;;4986361;28;20029;-93
2023/09/30 10:08:34;;;;;;;0.10;0.10;;;;;;;;;;4985353;28;20125;-93
2023/09/30 10:11:00;;;;;;;0.20;0.20;;;;;;;;;;4985212;28;20054;-92
2023/09/30 10:13:45;;;;;;;0.20;0.20;;;;;;;;;;4985341;28;20065;-94
2023/09/30 10:16:31;;;;;;;0.25;0.25;;;;;;;;;;4986252;28;20043;-93
2023/09/30 10:19:10;;;;;;;0.20;0.20;;;;;;;;;;4984860;28;20029;-94
2023/09/30 10:21:36;;;;;;;0.20;0.20;;;;;;;;;;4986059;28;20058;-94
2023/09/30 10:24:21;;;;;;;0.10;0.10;;;;;;;;;;4981462;28;20098;-93
2023/09/30 10:26:47;;;;;;;0.17;0.17;;;;;;;;;;4965871;28;20047;-93
2023/09/30 10:29:13;;;;;;;0.10;0.10;;;;;;;;;;4963911;28;20042;-91
2023/09/30 10:31:52;;;;;;;0.20;0.20;;;;;;;;;;4964059;28;20039;-92
2023/09/30 10:34:20;;;;;;;0.25;0.25;;;;;;;;;;4964094;28;20034;-92
2023/09/30 10:36:47;;;;;;;0.10;0.10;;;;;;;;;;4964580;28;20126;-92
2023/09/30 10:39:14;;;;;;;0.20;0.20;;;;;;;;;;4963167;28;20085;-92
2023/09/30 10:41:50;;;;;;;0.17;0.17;;;;;;;;;;4964434;28;20121;-91
2023/09/30 10:44:35;;;;;;;0.20;0.20;;;;;;;;;;4979385;28;20038;-92
2023/09/30 10:50:50;;;;;;;0.22;0.22;;;;;;;;;;4983553;28;20053;-92
2023/09/30 10:53:18;;;;;;;0.30;0.30;;;;;;;;;;4970093;28;20038;-91
2023/09/30 10:55:46;;;;;;;0.10;0.10;;;;;;;;;;4963861;28;20054;-91
2023/09/30 10:58:16;;;;;;;0.20;0.20;;;;;;;;;;4977749;28;20584;-91
2023/09/30 11:00:55;;;;;;;0.30;0.30;;;;;;;;;;4961558;28;20120;-91
2023/09/30 11:03:21;;;;;;;0.28;0.28;;;;;;;;;;4981802;28;20049;-90
2023/09/30 11:05:53;;;;;;;0.20;0.20;;;;;;;;;;4983637;28;20046;-91
2023/09/30 11:08:24;;;;;;;0.10;0.10;;;;;;;;;;4982553;28;20069;-90
2023/09/30 11:10:51;;;;;;;0.20;0.20;;;;;;;;;;4982474;28;20038;-92
2023/09/30 11:13:20;;;;;;;0.10;0.10;;;;;;;;;;4981948;28;20041;-91
2023/09/30 11:15:48;;;;;;;0.30;0.30;;;;;;;;;;4980934;28;20041;-92
2023/09/30 11:18:17;;;;;;;0.10;0.10;;;;;;;;;;4972969;28;20093;-90
2023/09/30 11:21:04;;;;;;;0.10;0.10;;;;;;;;;;4963496;28;20105;-92
2023/09/30 11:23:31;;;;;;;0.10;0.10;;;;;;;;;;4961675;28;20066;-90
2023/09/30 11:25:57;;;;;;;0.20;0.20;;;;;;;;;;4963291;28;20038;-90
2023/09/30 11:28:26;;;;;;;0.60;0.60;;;;;;;;;;4978252;28;20038;-92
2023/09/30 11:31:02;;;;;;;0.20;0.20;;;;;;;;;;4975080;28;20038;-91
2023/09/30 11:33:28;;;;;;;0.13;0.13;;;;;;;;;;4979481;28;20448;-91
2023/09/30 11:35:58;;;;;;;0.20;0.20;;;;;;;;;;4982831;28;20053;-91
2023/09/30 11:38:24;;;;;;;0.10;0.10;;;;;;;;;;4982292;28;20042;-92
2023/09/30 11:41:02;;;;;;;0.20;0.20;;;;;;;;;;4997400;28;20034;-91
2023/09/30 11:43:29;;;;;;;0.20;0.20;;;;;;;;;;4981700;28;20054;-90
2023/09/30 11:46:05;;;;;;;0.20;0.20;;;;;;;;;;4983423;28;20073;-91
2023/09/30 11:48:32;;;;;;;0.20;0.20;;;;;;;;;;4966481;28;20140;-91
2023/09/30 11:51:03;;;;;;;0.20;0.20;;;;;;;;;;4998778;28;20089;-88
2023/09/30 11:53:35;;;;;;;0.08;0.08;;;;;;;;;;4996370;28;20082;-91
2023/09/30 11:56:04;;;;;;;0.10;0.10;;;;;;;;;;4981337;28;20510;-91
2023/09/30 11:58:32;;;;;;;0.10;0.10;;;;;;;;;;4981772;28;20042;-90
2023/09/30 12:01:16;;;;;;;0.30;0.30;;;;;;;;;;4984871;28;20046;-91
2023/09/30 12:03:42;;;;;;;0.22;0.22;;;;;;;;;;5002587;28;20402;-91
2023/09/30 12:06:13;;;;;;;0.20;0.20;;;;;;;;;;4987091;28;20491;-92
2023/09/30 12:08:40;;;;;;;0.25;0.25;;;;;;;;;;4986189;28;20045;-92
2023/09/30 12:11:06;;;;;;;0.20;0.20;;;;;;;;;;5002574;28;20038;-94
2023/09/30 12:13:33;;;;;;;0.20;0.20;;;;;;;;;;5001646;28;20042;-92
2023/09/30 12:16:00;;;;;;;0.20;0.20;;;;;;;;;;4985980;28;20038;-91
2023/09/30 12:18:27;;;;;;;0.20;0.20;;;;;;;;;;4987112;28;20058;-91
2023/09/30 12:20:53;;;;;;;0.10;0.10;;;;;;;;;;4986281;28;20078;-90
2023/09/30 12:23:20;;;;;;;0.10;0.10;;;;;;;;;;4986512;28;20046;-92
2023/09/30 12:25:46;;;;;;;0.13;0.13;;;;;;;;;;4986189;28;20038;-92
2023/09/30 12:28:14;;;;;;;0.17;0.17;;;;;;;;;;4968862;28;20070;-90
2023/09/30 12:30:40;;;;;;;0.20;0.20;;;;;;;;;;4985341;28;20077;-91
2023/09/30 12:33:06;;;;;;;0.30;0.30;;;;;;;;;;5001241;28;20034;-91
2023/09/30 12:35:33;;;;;;;0.10;0.10;;;;;;;;;;4986489;28;20074;-92
2023/09/30 12:37:59;;;;;;;0.10;0.10;;;;;;;;;;4986314;28;20042;-92
2023/09/30 12:40:25;;;;;;;0.35;0.35;;;;;;;;;;4982106;28;20121;-91
2023/09/30 12:42:51;;;;;;;0.28;0.28;;;;;;;;;;4965215;28;20102;-91
2023/09/30 12:45:18;;;;;;;0.10;0.10;;;;;;;;;;4967061;28;20112;-92
2023/09/30 12:47:44;;;;;;;0.22;0.22;;;;;;;;;;4983552;28;20422;-90
2023/09/30 12:50:10;;;;;;;0.20;0.20;;;;;;;;;;4985812;28;20050;-90
2023/09/30 12:52:38;;;;;;;0.10;0.10;;;;;;;;;;4984777;28;20089;-91
2023/09/30 12:55:04;;;;;;;0.13;0.13;;;;;;;;;;4984870;28;20089;-91
2023/09/30 12:57:30;;;;;;;0.20;0.20;;;;;;;;;;4985048;28;20046;-90
2023/09/30 12:59:56;;;;;;;0.22;0.22;;;;;;;;;;4968679;28;20134;-93
2023/09/30 13:02:23;;;;;;;0.20;0.20;;;;;;;;;;4965198;28;20097;-91
2023/09/30 13:05:16;;;;;;;0.15;0.15;;;;;;;;;;4976717;28;20073;-93
2023/09/30 13:07:43;;;;;;;0.10;0.10;;;;;;;;;;5002175;28;20111;-88
2023/09/30 13:10:09;;;;;;;0.17;0.17;;;;;;;;;;4983493;28;20062;-91
2023/09/30 13:12:37;;;;;;;0.17;0.17;;;;;;;;;;4982925;28;20045;-90
2023/09/30 13:15:05;;;;;;;0.20;0.20;;;;;;;;;;4980876;28;20377;-91
2023/09/30 13:17:31;;;;;;;0.10;0.10;;;;;;;;;;4964717;28;20042;-90
2023/09/30 13:19:57;;;;;;;0.10;0.10;;;;;;;;;;4964926;28;20069;-92
2023/09/30 13:22:23;;;;;;;0.20;0.20;;;;;;;;;;4965038;28;20491;-91
2023/09/30 13:24:49;;;;;;;0.10;0.10;;;;;;;;;;4964651;28;20133;-92
2023/09/30 13:27:15;;;;;;;0.10;0.10;;;;;;;;;;4979643;28;20043;-91
2023/09/30 13:29:41;;;;;;;0.10;0.10;;;;;;;;;;4979419;28;20069;-90
2023/09/30 13:32:10;;;;;;;0.20;0.20;;;;;;;;;;4980312;28;20523;-91
2023/09/30 13:34:36;;;;;;;0.15;0.15;;;;;;;;;;4979639;28;20121;-91
2023/09/30 13:37:02;;;;;;;0.20;0.20;;;;;;;;;;4968177;28;20050;-91
2023/09/30 13:39:29;;;;;;;0.15;0.15;;;;;;;;;;4982997;28;20045;-91
2023/09/30 13:41:55;;;;;;;0.15;0.15;;;;;;;;;;4983733;28;20085;-90
2023/09/30 13:44:21;;;;;;;0.20;0.20;;;;;;;;;;4983051;28;20033;-90
2023/09/30 13:46:48;;;;;;;0.15;0.15;;;;;;;;;;4981230;28;20054;-90
2023/09/30 13:49:14;;;;;;;0.30;0.30;;;;;;;;;;4987514;28;20046;-89
2023/09/30 13:51:41;;;;;;;0.10;0.10;;;;;;;;;;4981583;28;20035;-90
2023/09/30 13:54:08;;;;;;;0.10;0.10;;;;;;;;;;4965188;28;20433;-92
2023/09/30 13:56:34;;;;;;;0.20;0.20;;;;;;;;;;4965122;28;20537;-92
2023/09/30 13:59:00;;;;;;;0.20;0.20;;;;;;;;;;4964325;28;20054;-89
2023/09/30 14:01:26;;;;;;;0.10;0.10;;;;;;;;;;4980761;28;20049;-91
2023/09/30 14:03:57;;;;;;;0.20;0.20;;;;;;;;;;4972877;28;20045;-92
2023/09/30 14:06:23;;;;;;;0.10;0.10;;;;;;;;;;4986637;28;20488;-90
2023/09/30 14:08:49;;;;;;;0.10;0.10;;;;;;;;;;4982545;28;20046;-90
2023/09/30 14:11:15;;;;;;;0.28;0.28;;;;;;;;;;4977554;28;20034;-91
2023/09/30 14:13:42;;;;;;;0.30;0.30;;;;;;;;;;4998202;28;20372;-88
2023/09/30 14:16:08;;;;;;;0.10;0.10;;;;;;;;;;4981980;28;20038;-90
2023/09/30 14:18:36;;;;;;;0.20;0.20;;;;;;;;;;4981614;28;20038;-91
2023/09/30 14:21:02;;;;;;;0.30;0.30;;;;;;;;;;4982898;28;20137;-90
2023/09/30 14:23:29;;;;;;;0.10;0.10;;;;;;;;;;4975826;28;20035;-89
2023/09/30 14:26:04;;;;;;;0.20;0.20;;;;;;;;;;4964403;28;20067;-91
2023/09/30 14:28:30;;;;;;;0.10;0.10;;;;;;;;;;4962840;28;20074;-91
2023/09/30 14:30:56;;;;;;;0.10;0.10;;;;;;;;;;4964424;28;20049;-90
2023/09/30 14:33:28;;;;;;;0.20;0.20;;;;;;;;;;4971466;28;20034;-90
2023/09/30 14:35:56;;;;;;;0.10;0.10;;;;;;;;;;5001121;28;20057;-88
2023/09/30 14:38:22;;;;;;;0.30;0.30;;;;;;;;;;4982340;28;20042;-91
2023/09/30 14:40:49;;;;;;;2.78;2.58;;;;;;;;;;4982659;28;20093;-92
2023/09/30 14:43:16;;;;;;;0.10;0.10;;;;;;;;;;4982577;28;20038;-90
2023/09/30 14:45:42;;;;;;;0.10;0.10;;;;;;;;;;4999511;28;20077;-89
2023/09/30 14:48:09;;;;;;;0.10;0.10;;;;;;;;;;4982071;28;20684;-91
2023/09/30 14:50:36;;;;;;;0.10;0.10;;;;;;;;;;4982512;28;20046;-89
2023/09/30 14:53:03;;;;;;;0.10;0.10;;;;;;;;;;4999652;28;20093;-92
2023/09/30 14:55:31;;;;;;;0.10;0.10;;;;;;;;;;4981643;28;20501;-92